AZU4160 SBRF-SBTE
Flight info
| Callsign | AZU4160 |
|---|---|
| Flight time | 1h 23m |
| Altitude | 38000 |
| Route | IROSI UZ81 SEVIL DCT GIDMI UZ7 DIKAK |
| Aircraft | A20N/M-SDE2E3FGHIRWXY/LB1 |
Departure
| Time | 2026-04-22 20:39 |
|---|---|
| Airport | Recife/Guararapes - Gilberto Freyre International Airport (SBRF) |
Arrival
| Time | 2026-04-22 22:02 |
|---|---|
| Airport | Senador Petrônio Portela Airport (SBTE) |
| Time | Latitude | Longitude | Altitude | Speed | Heading |
|---|---|---|---|---|---|
| 2026-04-22 19:51 | -8.13328 | -34.91867 | 46 ft | 0 kts | 72° |
| 2026-04-22 20:24 | -8.13333 | -34.91882 | 44 ft | 4 kts | 69° |
| 2026-04-22 20:24 | -8.13344 | -34.91907 | 44 ft | 4 kts | 54° |
| 2026-04-22 20:24 | -8.13363 | -34.91923 | 41 ft | 4 kts | 2° |
| 2026-04-22 20:25 | -8.13371 | -34.91923 | 42 ft | 1 kts | 342° |
| 2026-04-22 20:28 | -8.13370 | -34.91923 | 42 ft | 0 kts | 342° |
| 2026-04-22 20:29 | -8.13357 | -34.91928 | 42 ft | 5 kts | 342° |
| 2026-04-22 20:29 | -8.13303 | -34.91945 | 44 ft | 11 kts | 341° |
| 2026-04-22 20:29 | -8.13206 | -34.91978 | 44 ft | 18 kts | 342° |
| 2026-04-22 20:29 | -8.13079 | -34.92020 | 45 ft | 19 kts | 342° |
| 2026-04-22 20:30 | -8.12960 | -34.92058 | 48 ft | 17 kts | 341° |
| 2026-04-22 20:30 | -8.12851 | -34.92095 | 47 ft | 16 kts | 342° |
| 2026-04-22 20:30 | -8.12747 | -34.92128 | 48 ft | 15 kts | 342° |
| 2026-04-22 20:30 | -8.12649 | -34.92160 | 49 ft | 15 kts | 342° |
| 2026-04-22 20:31 | -8.12544 | -34.92195 | 47 ft | 17 kts | 341° |
| 2026-04-22 20:31 | -8.12416 | -34.92238 | 47 ft | 21 kts | 342° |
| 2026-04-22 20:31 | -8.12278 | -34.92283 | 44 ft | 19 kts | 342° |
| 2026-04-22 20:31 | -8.12146 | -34.92328 | 41 ft | 22 kts | 340° |
| 2026-04-22 20:32 | -8.12016 | -34.92372 | 41 ft | 19 kts | 342° |
| 2026-04-22 20:32 | -8.11891 | -34.92413 | 41 ft | 19 kts | 344° |
| 2026-04-22 20:32 | -8.11768 | -34.92452 | 40 ft | 19 kts | 341° |
| 2026-04-22 20:32 | -8.11654 | -34.92490 | 40 ft | 12 kts | 341° |
| 2026-04-22 20:33 | -8.11610 | -34.92511 | 42 ft | 0 kts | 330° |
| 2026-04-22 20:36 | -8.11607 | -34.92513 | 43 ft | 2 kts | 330° |
| 2026-04-22 20:37 | -8.11592 | -34.92522 | 43 ft | 3 kts | 323° |
| 2026-04-22 20:37 | -8.11571 | -34.92541 | 44 ft | 5 kts | 319° |
| 2026-04-22 20:37 | -8.11541 | -34.92567 | 45 ft | 7 kts | 319° |
| 2026-04-22 20:37 | -8.11501 | -34.92603 | 44 ft | 8 kts | 319° |
| 2026-04-22 20:38 | -8.11453 | -34.92648 | 45 ft | 10 kts | 313° |
| 2026-04-22 20:38 | -8.11455 | -34.92693 | 42 ft | 7 kts | 224° |
| 2026-04-22 20:38 | -8.11483 | -34.92695 | 44 ft | 0 kts | 165° |
| 2026-04-22 20:38 | -8.11573 | -34.92667 | 42 ft | 42 kts | 162° |
| 2026-04-22 20:39 | -8.12065 | -34.92505 | 43 ft | 103 kts | 162° |
| 2026-04-22 20:39 | -8.12885 | -34.92234 | 49 ft | 145 kts | 162° |
| 2026-04-22 20:39 | -8.13872 | -34.91917 | 567 ft | 140 kts | 161° |
| 2026-04-22 20:39 | -8.14781 | -34.91576 | 1178 ft | 142 kts | 160° |
| 2026-04-22 20:40 | -8.15770 | -34.91244 | 1566 ft | 154 kts | 164° |
| 2026-04-22 20:40 | -8.16823 | -34.90924 | 1909 ft | 165 kts | 164° |
| 2026-04-22 20:40 | -8.17989 | -34.90564 | 2248 ft | 185 kts | 162° |
| 2026-04-22 20:40 | -8.19291 | -34.90152 | 2642 ft | 208 kts | 162° |
| 2026-04-22 20:41 | -8.20628 | -34.89531 | 3401 ft | 216 kts | 142° |
| 2026-04-22 20:41 | -8.21598 | -34.88381 | 4280 ft | 219 kts | 117° |
| 2026-04-22 20:41 | -8.21935 | -34.86871 | 4725 ft | 229 kts | 88° |
| 2026-04-22 20:41 | -8.21440 | -34.85356 | 4874 ft | 233 kts | 56° |
| 2026-04-22 20:42 | -8.20375 | -34.84095 | 5005 ft | 243 kts | 50° |
| 2026-04-22 20:42 | -8.19203 | -34.82752 | 5277 ft | 267 kts | 51° |
| 2026-04-22 20:42 | -8.17961 | -34.81298 | 6044 ft | 276 kts | 51° |
| 2026-04-22 20:42 | -8.16719 | -34.79822 | 6951 ft | 278 kts | 51° |
| 2026-04-22 20:43 | -8.15459 | -34.78317 | 7828 ft | 281 kts | 52° |
| 2026-04-22 20:43 | -8.14192 | -34.76797 | 8699 ft | 285 kts | 52° |
| 2026-04-22 20:43 | -8.12909 | -34.75253 | 9563 ft | 289 kts | 52° |
| 2026-04-22 20:43 | -8.11608 | -34.73689 | 10282 ft | 297 kts | 52° |
| 2026-04-22 20:44 | -8.10021 | -34.72240 | 10569 ft | 323 kts | 33° |
| 2026-04-22 20:44 | -8.07832 | -34.71424 | 10834 ft | 348 kts | 9° |
| 2026-04-22 20:44 | -8.05390 | -34.71527 | 11475 ft | 357 kts | 347° |
| 2026-04-22 20:44 | -8.02985 | -34.72226 | 12217 ft | 361 kts | 344° |
| 2026-04-22 20:45 | -8.00576 | -34.72980 | 12934 ft | 366 kts | 344° |
| 2026-04-22 20:45 | -7.98132 | -34.73744 | 13661 ft | 369 kts | 344° |
| 2026-04-22 20:45 | -7.95673 | -34.74536 | 14291 ft | 373 kts | 341° |
| 2026-04-22 20:45 | -7.93232 | -34.75463 | 14920 ft | 377 kts | 341° |
| 2026-04-22 20:46 | -7.88264 | -34.77327 | 16141 ft | 384 kts | 341° |
| 2026-04-22 20:46 | -7.85745 | -34.78268 | 16742 ft | 388 kts | 341° |
| 2026-04-22 20:46 | -7.83207 | -34.79215 | 17310 ft | 391 kts | 341° |
| 2026-04-22 20:47 | -7.80645 | -34.80171 | 17888 ft | 395 kts | 341° |
| 2026-04-22 20:47 | -7.78192 | -34.81364 | 18399 ft | 401 kts | 327° |
| 2026-04-22 20:47 | -7.76092 | -34.83276 | 18930 ft | 405 kts | 309° |
| 2026-04-22 20:47 | -7.74604 | -34.85679 | 19436 ft | 408 kts | 297° |
| 2026-04-22 20:48 | -7.73344 | -34.88260 | 19941 ft | 410 kts | 296° |
| 2026-04-22 20:48 | -7.72105 | -34.90861 | 20465 ft | 413 kts | 296° |
| 2026-04-22 20:48 | -7.70855 | -34.93471 | 20979 ft | 415 kts | 296° |
| 2026-04-22 20:48 | -7.69585 | -34.96092 | 21493 ft | 417 kts | 296° |
| 2026-04-22 20:49 | -7.68318 | -34.98686 | 22054 ft | 418 kts | 296° |
| 2026-04-22 20:49 | -7.67027 | -35.01314 | 22592 ft | 419 kts | 296° |
| 2026-04-22 20:49 | -7.65727 | -35.03955 | 23102 ft | 421 kts | 296° |
| 2026-04-22 20:49 | -7.64425 | -35.06601 | 23616 ft | 423 kts | 296° |
| 2026-04-22 20:50 | -7.63112 | -35.09270 | 24004 ft | 426 kts | 296° |
| 2026-04-22 20:50 | -7.61791 | -35.11953 | 24395 ft | 428 kts | 296° |
| 2026-04-22 20:50 | -7.60467 | -35.14645 | 24754 ft | 431 kts | 296° |
| 2026-04-22 20:50 | -7.59144 | -35.17333 | 25138 ft | 434 kts | 296° |
| 2026-04-22 20:51 | -7.57785 | -35.20092 | 25521 ft | 436 kts | 296° |
| 2026-04-22 20:51 | -7.56436 | -35.22833 | 25867 ft | 439 kts | 296° |
| 2026-04-22 20:51 | -7.55075 | -35.25596 | 26226 ft | 441 kts | 296° |
| 2026-04-22 20:51 | -7.53706 | -35.28374 | 26569 ft | 444 kts | 297° |
| 2026-04-22 20:52 | -7.52324 | -35.31171 | 26915 ft | 446 kts | 297° |
| 2026-04-22 20:52 | -7.50940 | -35.33970 | 27255 ft | 449 kts | 297° |
| 2026-04-22 20:52 | -7.49544 | -35.36791 | 27572 ft | 451 kts | 297° |
| 2026-04-22 20:52 | -7.48138 | -35.39636 | 27885 ft | 454 kts | 297° |
| 2026-04-22 20:53 | -7.46729 | -35.42485 | 28186 ft | 457 kts | 297° |
| 2026-04-22 20:53 | -7.45308 | -35.45356 | 28507 ft | 459 kts | 297° |
| 2026-04-22 20:53 | -7.43874 | -35.48240 | 28797 ft | 461 kts | 298° |
| 2026-04-22 20:53 | -7.42192 | -35.50994 | 29100 ft | 463 kts | 306° |
| 2026-04-22 20:54 | -7.40160 | -35.53501 | 29367 ft | 464 kts | 314° |
| 2026-04-22 20:54 | -7.37798 | -35.55735 | 29653 ft | 466 kts | 321° |
| 2026-04-22 20:54 | -7.35303 | -35.57820 | 29945 ft | 468 kts | 321° |
| 2026-04-22 20:54 | -7.32795 | -35.59931 | 30207 ft | 470 kts | 321° |
| 2026-04-22 20:55 | -7.30282 | -35.62052 | 30482 ft | 472 kts | 320° |
| 2026-04-22 20:55 | -7.27773 | -35.64171 | 30751 ft | 473 kts | 320° |
| 2026-04-22 20:55 | -7.25236 | -35.66314 | 31016 ft | 475 kts | 320° |
| 2026-04-22 20:55 | -7.22708 | -35.68448 | 31350 ft | 475 kts | 320° |
| 2026-04-22 20:56 | -7.20177 | -35.70583 | 31729 ft | 474 kts | 321° |
| 2026-04-22 20:56 | -7.17680 | -35.72689 | 32104 ft | 473 kts | 320° |
| 2026-04-22 20:56 | -7.15163 | -35.74810 | 32473 ft | 472 kts | 320° |
| 2026-04-22 20:56 | -7.12647 | -35.76929 | 32849 ft | 471 kts | 320° |
| 2026-04-22 20:57 | -7.10126 | -35.79043 | 33202 ft | 470 kts | 321° |
| 2026-04-22 20:57 | -7.07598 | -35.81182 | 33556 ft | 469 kts | 317° |
| 2026-04-22 20:57 | -7.05455 | -35.83593 | 33895 ft | 468 kts | 306° |
| 2026-04-22 20:57 | -7.03781 | -35.86435 | 34172 ft | 468 kts | 294° |
| 2026-04-22 20:58 | -7.02699 | -35.89483 | 34406 ft | 468 kts | 284° |
| 2026-04-22 20:58 | -7.01923 | -35.92664 | 34669 ft | 468 kts | 284° |
| 2026-04-22 20:58 | -7.01141 | -35.95844 | 34932 ft | 467 kts | 284° |
| 2026-04-22 20:58 | -7.00358 | -35.99013 | 35200 ft | 467 kts | 284° |
| 2026-04-22 20:59 | -6.99571 | -36.02183 | 35445 ft | 466 kts | 284° |
| 2026-04-22 20:59 | -6.98786 | -36.05345 | 35695 ft | 466 kts | 284° |
| 2026-04-22 20:59 | -6.98003 | -36.08499 | 35947 ft | 466 kts | 284° |
| 2026-04-22 20:59 | -6.97216 | -36.11670 | 36205 ft | 465 kts | 284° |
| 2026-04-22 21:00 | -6.96432 | -36.14827 | 36437 ft | 465 kts | 284° |
| 2026-04-22 21:00 | -6.95649 | -36.17981 | 36683 ft | 464 kts | 284° |
| 2026-04-22 21:00 | -6.94869 | -36.21119 | 36924 ft | 463 kts | 284° |
| 2026-04-22 21:00 | -6.94087 | -36.24264 | 37152 ft | 463 kts | 284° |
| 2026-04-22 21:01 | -6.93307 | -36.27401 | 37377 ft | 462 kts | 284° |
| 2026-04-22 21:01 | -6.92524 | -36.30548 | 37618 ft | 461 kts | 284° |
| 2026-04-22 21:01 | -6.91747 | -36.33670 | 37821 ft | 461 kts | 284° |
| 2026-04-22 21:01 | -6.90969 | -36.36797 | 37963 ft | 461 kts | 284° |
| 2026-04-22 21:02 | -6.89415 | -36.43039 | 37964 ft | 458 kts | 284° |
| 2026-04-22 21:02 | -6.87868 | -36.49249 | 37944 ft | 459 kts | 284° |
| 2026-04-22 21:03 | -6.86315 | -36.55475 | 37933 ft | 458 kts | 284° |
| 2026-04-22 21:03 | -6.84765 | -36.61688 | 37945 ft | 457 kts | 284° |
| 2026-04-22 21:04 | -6.83218 | -36.67888 | 37932 ft | 457 kts | 284° |
| 2026-04-22 21:04 | -6.81667 | -36.74098 | 37932 ft | 457 kts | 284° |
| 2026-04-22 21:05 | -6.80119 | -36.80293 | 37931 ft | 456 kts | 284° |
| 2026-04-22 21:05 | -6.78575 | -36.86468 | 37920 ft | 456 kts | 284° |
| 2026-04-22 21:06 | -6.77036 | -36.92618 | 37915 ft | 455 kts | 284° |
| 2026-04-22 21:06 | -6.75491 | -36.98793 | 37925 ft | 455 kts | 284° |
| 2026-04-22 21:07 | -6.73945 | -37.04964 | 37897 ft | 455 kts | 284° |
| 2026-04-22 21:07 | -6.72402 | -37.11125 | 37899 ft | 455 kts | 284° |
| 2026-04-22 21:08 | -6.70853 | -37.17299 | 37912 ft | 454 kts | 284° |
| 2026-04-22 21:08 | -6.69310 | -37.23451 | 37909 ft | 454 kts | 284° |
| 2026-04-22 21:09 | -6.67762 | -37.29619 | 37898 ft | 455 kts | 284° |
| 2026-04-22 21:09 | -6.66212 | -37.35787 | 37897 ft | 455 kts | 284° |
| 2026-04-22 21:10 | -6.64662 | -37.41956 | 37919 ft | 455 kts | 284° |
| 2026-04-22 21:10 | -6.63107 | -37.48142 | 37910 ft | 456 kts | 284° |
| 2026-04-22 21:11 | -6.61815 | -37.53279 | 37916 ft | 456 kts | 284° |
| 2026-04-22 21:11 | -6.60256 | -37.59471 | 37909 ft | 457 kts | 284° |
| 2026-04-22 21:12 | -6.58698 | -37.65660 | 37912 ft | 457 kts | 284° |
| 2026-04-22 21:12 | -6.57135 | -37.71864 | 37927 ft | 458 kts | 284° |
| 2026-04-22 21:13 | -6.55570 | -37.78071 | 37919 ft | 458 kts | 284° |
| 2026-04-22 21:13 | -6.54004 | -37.84280 | 37913 ft | 458 kts | 284° |
| 2026-04-22 21:14 | -6.52437 | -37.90490 | 37922 ft | 458 kts | 284° |
| 2026-04-22 21:14 | -6.50868 | -37.96703 | 37927 ft | 458 kts | 284° |
| 2026-04-22 21:15 | -6.49299 | -38.02911 | 37919 ft | 456 kts | 284° |
| 2026-04-22 21:15 | -6.47737 | -38.09090 | 37926 ft | 456 kts | 284° |
| 2026-04-22 21:16 | -6.46175 | -38.15264 | 37926 ft | 456 kts | 284° |
| 2026-04-22 21:16 | -6.44620 | -38.21409 | 37930 ft | 455 kts | 284° |
| 2026-04-22 21:17 | -6.43059 | -38.27574 | 37916 ft | 455 kts | 284° |
| 2026-04-22 21:17 | -6.41488 | -38.33774 | 37933 ft | 454 kts | 284° |
| 2026-04-22 21:18 | -6.39940 | -38.39882 | 37919 ft | 454 kts | 284° |
| 2026-04-22 21:18 | -6.38382 | -38.46027 | 37920 ft | 453 kts | 283° |
| 2026-04-22 21:19 | -6.36824 | -38.52168 | 37938 ft | 453 kts | 283° |
| 2026-04-22 21:19 | -6.35265 | -38.58309 | 37922 ft | 453 kts | 283° |
| 2026-04-22 21:20 | -6.33706 | -38.64442 | 37925 ft | 453 kts | 283° |
| 2026-04-22 21:20 | -6.32148 | -38.70574 | 37919 ft | 453 kts | 283° |
| 2026-04-22 21:21 | -6.30586 | -38.76719 | 37920 ft | 453 kts | 283° |
| 2026-04-22 21:21 | -6.29024 | -38.82859 | 37912 ft | 454 kts | 283° |
| 2026-04-22 21:22 | -6.27459 | -38.89005 | 37915 ft | 454 kts | 283° |
| 2026-04-22 21:22 | -6.25890 | -38.95169 | 37913 ft | 455 kts | 283° |
| 2026-04-22 21:23 | -6.24320 | -39.01328 | 37915 ft | 456 kts | 283° |
| 2026-04-22 21:23 | -6.22740 | -39.07526 | 37921 ft | 457 kts | 283° |
| 2026-04-22 21:24 | -6.21161 | -39.13719 | 37932 ft | 458 kts | 284° |
| 2026-04-22 21:24 | -6.19576 | -39.19928 | 37938 ft | 459 kts | 284° |
| 2026-04-22 21:25 | -6.17989 | -39.26146 | 37947 ft | 460 kts | 284° |
| 2026-04-22 21:25 | -6.16398 | -39.32371 | 37930 ft | 461 kts | 284° |
| 2026-04-22 21:26 | -6.14810 | -39.38584 | 37924 ft | 458 kts | 284° |
| 2026-04-22 21:26 | -6.13231 | -39.44760 | 37933 ft | 459 kts | 284° |
| 2026-04-22 21:27 | -6.11642 | -39.50967 | 37925 ft | 458 kts | 284° |
| 2026-04-22 21:27 | -6.10054 | -39.57169 | 37940 ft | 458 kts | 284° |
| 2026-04-22 21:28 | -6.08469 | -39.63361 | 37936 ft | 458 kts | 284° |
| 2026-04-22 21:28 | -6.06881 | -39.69556 | 37937 ft | 457 kts | 284° |
| 2026-04-22 21:29 | -6.05298 | -39.75730 | 37924 ft | 457 kts | 284° |
| 2026-04-22 21:29 | -6.03715 | -39.81903 | 37927 ft | 456 kts | 284° |
| 2026-04-22 21:30 | -6.02130 | -39.88079 | 37938 ft | 456 kts | 284° |
| 2026-04-22 21:30 | -6.00548 | -39.94240 | 37933 ft | 456 kts | 284° |
| 2026-04-22 21:31 | -5.98967 | -40.00394 | 37944 ft | 455 kts | 284° |
| 2026-04-22 21:31 | -5.97385 | -40.06551 | 37943 ft | 455 kts | 284° |
| 2026-04-22 21:32 | -5.95799 | -40.12718 | 37934 ft | 456 kts | 284° |
| 2026-04-22 21:32 | -5.94213 | -40.18882 | 37937 ft | 456 kts | 284° |
| 2026-04-22 21:33 | -5.92625 | -40.25053 | 37947 ft | 456 kts | 284° |
| 2026-04-22 21:33 | -5.91038 | -40.31216 | 37944 ft | 456 kts | 284° |
| 2026-04-22 21:34 | -5.89451 | -40.37376 | 37945 ft | 456 kts | 284° |
| 2026-04-22 21:34 | -5.87859 | -40.43553 | 37934 ft | 457 kts | 283° |
| 2026-04-22 21:35 | -5.86268 | -40.49723 | 37941 ft | 457 kts | 283° |
| 2026-04-22 21:35 | -5.84671 | -40.55915 | 37942 ft | 457 kts | 283° |
| 2026-04-22 21:36 | -5.83031 | -40.62083 | 37937 ft | 458 kts | 287° |
| 2026-04-22 21:36 | -5.80934 | -40.68134 | 37938 ft | 458 kts | 288° |
| 2026-04-22 21:37 | -5.78847 | -40.74175 | 37948 ft | 459 kts | 288° |
| 2026-04-22 21:37 | -5.76752 | -40.80233 | 37952 ft | 459 kts | 288° |
| 2026-04-22 21:38 | -5.74670 | -40.86244 | 37944 ft | 459 kts | 288° |
| 2026-04-22 21:38 | -5.72570 | -40.92300 | 37948 ft | 459 kts | 288° |
| 2026-04-22 21:39 | -5.70469 | -40.98359 | 37867 ft | 459 kts | 288° |
| 2026-04-22 21:39 | -5.69421 | -41.01380 | 37454 ft | 459 kts | 288° |
| 2026-04-22 21:39 | -5.68371 | -41.04406 | 36700 ft | 462 kts | 288° |
| 2026-04-22 21:40 | -5.67303 | -41.07487 | 35740 ft | 469 kts | 288° |
| 2026-04-22 21:40 | -5.66221 | -41.10606 | 34725 ft | 478 kts | 289° |
| 2026-04-22 21:40 | -5.65123 | -41.13770 | 33786 ft | 482 kts | 289° |
| 2026-04-22 21:40 | -5.64015 | -41.16958 | 32828 ft | 485 kts | 289° |
| 2026-04-22 21:41 | -5.62904 | -41.20155 | 31924 ft | 486 kts | 289° |
| 2026-04-22 21:41 | -5.61792 | -41.23357 | 31045 ft | 486 kts | 289° |
| 2026-04-22 21:41 | -5.60668 | -41.26591 | 30442 ft | 481 kts | 289° |
| 2026-04-22 21:41 | -5.59581 | -41.29717 | 29796 ft | 477 kts | 289° |
| 2026-04-22 21:42 | -5.58497 | -41.32836 | 29177 ft | 471 kts | 289° |
| 2026-04-22 21:42 | -5.57426 | -41.35919 | 28570 ft | 465 kts | 289° |
| 2026-04-22 21:42 | -5.56366 | -41.38969 | 27971 ft | 459 kts | 289° |
| 2026-04-22 21:42 | -5.55319 | -41.41981 | 27380 ft | 455 kts | 289° |
| 2026-04-22 21:43 | -5.54284 | -41.44959 | 26781 ft | 450 kts | 289° |
| 2026-04-22 21:43 | -5.53258 | -41.47909 | 26186 ft | 446 kts | 289° |
| 2026-04-22 21:43 | -5.52243 | -41.50829 | 25614 ft | 442 kts | 289° |
| 2026-04-22 21:43 | -5.51230 | -41.53738 | 25031 ft | 439 kts | 289° |
| 2026-04-22 21:44 | -5.50225 | -41.56628 | 24401 ft | 437 kts | 289° |
| 2026-04-22 21:44 | -5.49227 | -41.59498 | 23807 ft | 435 kts | 290° |
| 2026-04-22 21:44 | -5.48234 | -41.62351 | 23170 ft | 432 kts | 290° |
| 2026-04-22 21:44 | -5.47248 | -41.65184 | 22629 ft | 426 kts | 290° |
| 2026-04-22 21:45 | -5.46276 | -41.67973 | 22058 ft | 422 kts | 290° |
| 2026-04-22 21:45 | -5.45314 | -41.70735 | 21481 ft | 418 kts | 290° |
| 2026-04-22 21:45 | -5.44360 | -41.73472 | 20921 ft | 414 kts | 290° |
| 2026-04-22 21:45 | -5.43413 | -41.76191 | 20354 ft | 410 kts | 290° |
| 2026-04-22 21:46 | -5.42471 | -41.78892 | 19793 ft | 408 kts | 290° |
| 2026-04-22 21:46 | -5.41539 | -41.81567 | 19220 ft | 405 kts | 290° |
| 2026-04-22 21:46 | -5.40612 | -41.84227 | 18644 ft | 404 kts | 290° |
| 2026-04-22 21:46 | -5.39690 | -41.86872 | 18075 ft | 402 kts | 290° |
| 2026-04-22 21:47 | -5.38772 | -41.89504 | 17530 ft | 397 kts | 290° |
| 2026-04-22 21:47 | -5.37863 | -41.92108 | 16991 ft | 393 kts | 290° |
| 2026-04-22 21:47 | -5.36970 | -41.94670 | 16456 ft | 390 kts | 290° |
| 2026-04-22 21:47 | -5.36077 | -41.97228 | 15911 ft | 387 kts | 290° |
| 2026-04-22 21:48 | -5.35190 | -41.99770 | 15355 ft | 385 kts | 290° |
| 2026-04-22 21:48 | -5.34310 | -42.02291 | 14821 ft | 382 kts | 290° |
| 2026-04-22 21:48 | -5.33435 | -42.04802 | 14322 ft | 379 kts | 289° |
| 2026-04-22 21:48 | -5.32773 | -42.07355 | 13798 ft | 377 kts | 281° |
| 2026-04-22 21:49 | -5.32460 | -42.09961 | 13250 ft | 375 kts | 276° |
| 2026-04-22 21:49 | -5.32201 | -42.12556 | 12741 ft | 371 kts | 276° |
| 2026-04-22 21:49 | -5.31935 | -42.15115 | 12230 ft | 368 kts | 276° |
| 2026-04-22 21:49 | -5.31667 | -42.17656 | 11732 ft | 365 kts | 276° |
| 2026-04-22 21:50 | -5.31491 | -42.19326 | 11400 ft | 363 kts | 276° |
| 2026-04-22 21:50 | -5.31139 | -42.22676 | 10738 ft | 360 kts | 276° |
| 2026-04-22 21:50 | -5.30880 | -42.25136 | 10265 ft | 357 kts | 276° |
| 2026-04-22 21:50 | -5.30625 | -42.27566 | 10124 ft | 343 kts | 276° |
| 2026-04-22 21:51 | -5.30381 | -42.29898 | 10002 ft | 330 kts | 276° |
| 2026-04-22 21:51 | -5.30145 | -42.32141 | 9884 ft | 317 kts | 276° |
| 2026-04-22 21:51 | -5.29917 | -42.34313 | 9562 ft | 312 kts | 276° |
| 2026-04-22 21:52 | -5.29469 | -42.38587 | 8845 ft | 305 kts | 276° |
| 2026-04-22 21:52 | -5.29247 | -42.40701 | 8469 ft | 303 kts | 276° |
| 2026-04-22 21:52 | -5.29027 | -42.42793 | 8098 ft | 301 kts | 276° |
| 2026-04-22 21:52 | -5.28809 | -42.44869 | 7726 ft | 299 kts | 276° |
| 2026-04-22 21:53 | -5.28592 | -42.46939 | 7357 ft | 297 kts | 276° |
| 2026-04-22 21:53 | -5.28375 | -42.48996 | 6988 ft | 296 kts | 276° |
| 2026-04-22 21:53 | -5.28159 | -42.51041 | 6619 ft | 294 kts | 276° |
| 2026-04-22 21:53 | -5.27944 | -42.53074 | 6237 ft | 293 kts | 276° |
| 2026-04-22 21:54 | -5.27730 | -42.55104 | 5869 ft | 291 kts | 275° |
| 2026-04-22 21:54 | -5.27518 | -42.57119 | 5502 ft | 289 kts | 276° |
| 2026-04-22 21:54 | -5.27307 | -42.59124 | 5133 ft | 288 kts | 275° |
| 2026-04-22 21:54 | -5.27097 | -42.61113 | 4767 ft | 287 kts | 275° |
| 2026-04-22 21:55 | -5.26889 | -42.63095 | 4398 ft | 285 kts | 275° |
| 2026-04-22 21:55 | -5.26681 | -42.65069 | 4047 ft | 283 kts | 275° |
| 2026-04-22 21:55 | -5.26476 | -42.67001 | 3910 ft | 272 kts | 275° |
| 2026-04-22 21:55 | -5.26282 | -42.68844 | 3883 ft | 258 kts | 275° |
| 2026-04-22 21:56 | -5.26093 | -42.70580 | 3881 ft | 243 kts | 277° |
| 2026-04-22 21:56 | -5.25734 | -42.72186 | 3799 ft | 231 kts | 284° |
| 2026-04-22 21:56 | -5.25343 | -42.73708 | 3706 ft | 220 kts | 284° |
| 2026-04-22 21:56 | -5.24981 | -42.75150 | 3672 ft | 205 kts | 283° |
| 2026-04-22 21:57 | -5.24647 | -42.76482 | 3576 ft | 190 kts | 283° |
| 2026-04-22 21:57 | -5.24337 | -42.77728 | 3479 ft | 178 kts | 283° |
| 2026-04-22 21:57 | -5.24045 | -42.78896 | 3388 ft | 167 kts | 283° |
| 2026-04-22 21:57 | -5.23716 | -42.79979 | 3218 ft | 160 kts | 301° |
| 2026-04-22 21:58 | -5.22912 | -42.80601 | 3022 ft | 145 kts | 348° |
| 2026-04-22 21:58 | -5.21908 | -42.80714 | 2694 ft | 144 kts | 357° |
| 2026-04-22 21:58 | -5.21248 | -42.80774 | 2489 ft | 144 kts | 357° |
| 2026-04-22 21:58 | -5.20252 | -42.80872 | 2168 ft | 144 kts | 356° |
| 2026-04-22 21:59 | -5.18944 | -42.81007 | 1904 ft | 142 kts | 356° |
| 2026-04-22 21:59 | -5.18275 | -42.81077 | 1869 ft | 145 kts | 356° |
| 2026-04-22 21:59 | -5.16954 | -42.81216 | 1640 ft | 144 kts | 355° |
| 2026-04-22 21:59 | -5.15962 | -42.81321 | 1485 ft | 141 kts | 355° |
| 2026-04-22 22:00 | -5.15298 | -42.81392 | 1442 ft | 142 kts | 355° |
| 2026-04-22 22:00 | -5.13998 | -42.81528 | 1370 ft | 142 kts | 355° |
| 2026-04-22 22:00 | -5.13333 | -42.81598 | 1339 ft | 141 kts | 355° |
| 2026-04-22 22:00 | -5.12354 | -42.81701 | 1315 ft | 141 kts | 355° |
| 2026-04-22 22:01 | -5.11369 | -42.81804 | 1200 ft | 143 kts | 355° |
| 2026-04-22 22:01 | -5.10390 | -42.81906 | 1023 ft | 141 kts | 354° |
| 2026-04-22 22:01 | -5.09418 | -42.82008 | 843 ft | 140 kts | 354° |
| 2026-04-22 22:01 | -5.08446 | -42.82111 | 663 ft | 141 kts | 354° |
| 2026-04-22 22:02 | -5.07468 | -42.82217 | 377 ft | 140 kts | 353° |
| 2026-04-22 22:02 | -5.06513 | -42.82329 | 229 ft | 135 kts | 354° |
| 2026-04-22 22:02 | -5.05773 | -42.82402 | 221 ft | 69 kts | 355° |
| 2026-04-22 22:02 | -5.05451 | -42.82429 | 206 ft | 37 kts | 354° |
| 2026-04-22 22:03 | -5.05207 | -42.82456 | 207 ft | 31 kts | 354° |
| 2026-04-22 22:03 | -5.05048 | -42.82441 | 206 ft | 11 kts | 348° |
| 2026-04-22 22:03 | -5.05056 | -42.82471 | 201 ft | 8 kts | 179° |
| 2026-04-22 22:03 | -5.05117 | -42.82467 | 201 ft | 10 kts | 176° |
| 2026-04-22 22:04 | -5.05190 | -42.82457 | 208 ft | 12 kts | 172° |
| 2026-04-22 22:04 | -5.05276 | -42.82446 | 206 ft | 13 kts | 170° |
| 2026-04-22 22:04 | -5.05373 | -42.82437 | 209 ft | 15 kts | 175° |
| 2026-04-22 22:04 | -5.05487 | -42.82428 | 208 ft | 18 kts | 175° |
| 2026-04-22 22:05 | -5.05616 | -42.82414 | 215 ft | 19 kts | 174° |
| 2026-04-22 22:05 | -5.05753 | -42.82400 | 222 ft | 20 kts | 174° |
| 2026-04-22 22:05 | -5.05897 | -42.82386 | 214 ft | 21 kts | 174° |
| 2026-04-22 22:05 | -5.06050 | -42.82367 | 217 ft | 23 kts | 174° |
| 2026-04-22 22:06 | -5.06206 | -42.82353 | 220 ft | 23 kts | 174° |
| 2026-04-22 22:06 | -5.06357 | -42.82329 | 222 ft | 18 kts | 142° |
| 2026-04-22 22:06 | -5.06368 | -42.82253 | 220 ft | 7 kts | 87° |
| 2026-04-22 22:06 | -5.06367 | -42.82244 | 220 ft | 0 kts | 87° |
| 2026-04-22 22:07 | -5.06367 | -42.82239 | 220 ft | 2 kts | 90° |
| 2026-04-22 22:07 | -5.06380 | -42.82220 | 220 ft | 5 kts | 136° |
| 2026-04-22 22:07 | -5.06393 | -42.82204 | 221 ft | 1 kts | 120° |
| 2026-04-22 22:07 | -5.06403 | -42.82185 | 220 ft | 5 kts | 117° |
| 2026-04-22 22:08 | -5.06412 | -42.82167 | 223 ft | 1 kts | 110° |
| 2026-04-22 22:08 | -5.06414 | -42.82161 | 222 ft | 0 kts | 109° |